Terminal Aerodrome Forecast
Issued by NWS Charleston, WV

Home | Current Version | Previous Version | Text Only | Print | Product List | Glossary On
Versions: 1 2 3 4 5 6 7 8 9 10 11 12 13 14 15 16 17 18 19 20 21 22
000
FTUS41 KRLX 130900 AAA
TAFHTS
TAF AMD
KHTS 130908Z 1309/1406 21006KT P6SM BKN100
     FM131500 24010G16KT P6SM BKN050
     FM132000 22009G15KT P6SM VCTS BKN040CB
     FM132300 21006KT 6SM TSRA BR BKN035CB
     FM140000 21005KT 5SM TSRA BR OVC025CB
     FM140200 21004KT 6SM -SHRA BR VCTS BKN035CB
     FM140500 21005KT 4SM SHRA BR VCTS OVC025CB=

USA.gov is the U.S. government's official web portal to all federal, state and local government web resources and services.